sensor_id;sensor_type;location;lat;lon;timestamp;P1;durP1;ratioP1;P2;durP2;ratioP2
51578;SDS011;47998;53.242;6.386;2022-08-21T00:02:12;10.38;;;6.93;;
51578;SDS011;47998;53.242;6.386;2022-08-21T00:04:47;15.82;;;8.23;;
51578;SDS011;47998;53.242;6.386;2022-08-21T00:07:15;12.98;;;7.75;;
51578;SDS011;47998;53.242;6.386;2022-08-21T00:09:43;13.15;;;7.43;;
51578;SDS011;47998;53.242;6.386;2022-08-21T00:12:09;13.75;;;7.28;;
51578;SDS011;47998;53.242;6.386;2022-08-21T00:14:35;12.15;;;7.40;;
51578;SDS011;47998;53.242;6.386;2022-08-21T00:17:02;14.68;;;8.02;;
51578;SDS011;47998;53.242;6.386;2022-08-21T00:19:28;13.80;;;7.20;;
51578;SDS011;47998;53.242;6.386;2022-08-21T00:21:54;15.75;;;8.98;;
51578;SDS011;47998;53.242;6.386;2022-08-21T00:24:21;12.48;;;8.43;;
51578;SDS011;47998;53.242;6.386;2022-08-21T00:26:47;16.67;;;8.63;;
51578;SDS011;47998;53.242;6.386;2022-08-21T00:29:13;12.43;;;7.63;;
51578;SDS011;47998;53.242;6.386;2022-08-21T00:31:40;11.38;;;7.75;;
51578;SDS011;47998;53.242;6.386;2022-08-21T00:34:06;13.10;;;7.82;;
51578;SDS011;47998;53.242;6.386;2022-08-21T00:36:33;15.68;;;8.48;;
51578;SDS011;47998;53.242;6.386;2022-08-21T00:39:00;16.33;;;8.02;;
51578;SDS011;47998;53.242;6.386;2022-08-21T00:41:26;13.57;;;7.45;;
51578;SDS011;47998;53.242;6.386;2022-08-21T00:43:53;11.80;;;7.45;;
51578;SDS011;47998;53.242;6.386;2022-08-21T00:46:20;13.98;;;8.35;;
51578;SDS011;47998;53.242;6.386;2022-08-21T00:48:46;14.65;;;8.20;;
51578;SDS011;47998;53.242;6.386;2022-08-21T00:51:47;16.50;;;7.90;;
51578;SDS011;47998;53.242;6.386;2022-08-21T00:54:10;14.85;;;8.38;;
51578;SDS011;47998;53.242;6.386;2022-08-21T00:56:37;15.02;;;8.27;;
51578;SDS011;47998;53.242;6.386;2022-08-21T00:59:03;16.70;;;8.40;;
51578;SDS011;47998;53.242;6.386;2022-08-21T01:01:29;12.95;;;8.80;;
51578;SDS011;47998;53.242;6.386;2022-08-21T01:03:55;15.43;;;8.23;;
51578;SDS011;47998;53.242;6.386;2022-08-21T01:06:21;15.02;;;8.20;;
51578;SDS011;47998;53.242;6.386;2022-08-21T01:08:47;19.15;;;8.65;;
51578;SDS011;47998;53.242;6.386;2022-08-21T01:11:13;20.08;;;8.65;;
51578;SDS011;47998;53.242;6.386;2022-08-21T01:13:40;13.23;;;8.90;;
51578;SDS011;47998;53.242;6.386;2022-08-21T01:16:11;15.23;;;9.48;;
51578;SDS011;47998;53.242;6.386;2022-08-21T01:18:40;14.48;;;8.52;;
51578;SDS011;47998;53.242;6.386;2022-08-21T01:21:11;17.02;;;9.52;;
51578;SDS011;47998;53.242;6.386;2022-08-21T01:23:41;16.23;;;8.85;;
51578;SDS011;47998;53.242;6.386;2022-08-21T01:26:08;15.65;;;9.18;;
51578;SDS011;47998;53.242;6.386;2022-08-21T01:28:40;18.73;;;9.13;;
51578;SDS011;47998;53.242;6.386;2022-08-21T01:31:10;13.82;;;9.02;;
51578;SDS011;47998;53.242;6.386;2022-08-21T01:33:39;13.98;;;9.05;;
51578;SDS011;47998;53.242;6.386;2022-08-21T01:36:04;16.10;;;9.60;;
51578;SDS011;47998;53.242;6.386;2022-08-21T01:38:31;11.43;;;8.00;;
51578;SDS011;47998;53.242;6.386;2022-08-21T01:40:57;11.48;;;8.82;;
51578;SDS011;47998;53.242;6.386;2022-08-21T01:43:23;19.27;;;9.90;;
51578;SDS011;47998;53.242;6.386;2022-08-21T01:45:49;16.05;;;10.15;;
51578;SDS011;47998;53.242;6.386;2022-08-21T01:48:17;19.23;;;10.02;;
51578;SDS011;47998;53.242;6.386;2022-08-21T01:50:43;16.08;;;9.70;;
51578;SDS011;47998;53.242;6.386;2022-08-21T01:53:08;18.25;;;10.32;;
51578;SDS011;47998;53.242;6.386;2022-08-21T01:55:34;19.17;;;9.55;;
51578;SDS011;47998;53.242;6.386;2022-08-21T01:58:00;15.50;;;9.93;;
51578;SDS011;47998;53.242;6.386;2022-08-21T02:00:26;17.42;;;10.40;;
51578;SDS011;47998;53.242;6.386;2022-08-21T02:02:51;12.25;;;9.63;;
51578;SDS011;47998;53.242;6.386;2022-08-21T02:05:18;20.45;;;10.98;;
51578;SDS011;47998;53.242;6.386;2022-08-21T02:07:49;20.10;;;11.00;;
51578;SDS011;47998;53.242;6.386;2022-08-21T02:12:51;16.23;;;10.85;;
51578;SDS011;47998;53.242;6.386;2022-08-21T02:15:18;17.00;;;10.10;;
51578;SDS011;47998;53.242;6.386;2022-08-21T02:17:51;15.45;;;10.88;;
51578;SDS011;47998;53.242;6.386;2022-08-21T02:20:21;23.48;;;11.70;;
51578;SDS011;47998;53.242;6.386;2022-08-21T02:22:49;24.17;;;12.13;;
51578;SDS011;47998;53.242;6.386;2022-08-21T02:25:15;20.38;;;11.73;;
51578;SDS011;47998;53.242;6.386;2022-08-21T02:27:44;18.30;;;11.05;;
51578;SDS011;47998;53.242;6.386;2022-08-21T02:30:13;20.25;;;10.48;;
51578;SDS011;47998;53.242;6.386;2022-08-21T02:32:45;22.60;;;11.10;;
51578;SDS011;47998;53.242;6.386;2022-08-21T02:35:11;19.27;;;12.00;;
51578;SDS011;47998;53.242;6.386;2022-08-21T02:37:44;19.85;;;11.48;;
51578;SDS011;47998;53.242;6.386;2022-08-21T02:40:22;22.42;;;11.63;;
51578;SDS011;47998;53.242;6.386;2022-08-21T02:42:52;24.85;;;12.57;;
51578;SDS011;47998;53.242;6.386;2022-08-21T02:45:18;19.13;;;11.57;;
51578;SDS011;47998;53.242;6.386;2022-08-21T02:47:51;20.00;;;11.73;;
51578;SDS011;47998;53.242;6.386;2022-08-21T02:50:23;26.02;;;13.30;;
51578;SDS011;47998;53.242;6.386;2022-08-21T02:53:00;22.50;;;11.65;;
51578;SDS011;47998;53.242;6.386;2022-08-21T02:55:27;16.98;;;12.48;;
51578;SDS011;47998;53.242;6.386;2022-08-21T02:57:55;18.95;;;11.60;;
51578;SDS011;47998;53.242;6.386;2022-08-21T03:00:23;22.48;;;12.52;;
51578;SDS011;47998;53.242;6.386;2022-08-21T03:02:50;22.08;;;12.55;;
51578;SDS011;47998;53.242;6.386;2022-08-21T03:05:17;18.60;;;11.95;;
51578;SDS011;47998;53.242;6.386;2022-08-21T03:07:43;20.55;;;12.77;;
51578;SDS011;47998;53.242;6.386;2022-08-21T03:10:11;17.85;;;11.90;;
51578;SDS011;47998;53.242;6.386;2022-08-21T03:12:37;21.95;;;13.30;;
51578;SDS011;47998;53.242;6.386;2022-08-21T03:15:03;24.25;;;12.45;;
51578;SDS011;47998;53.242;6.386;2022-08-21T03:17:31;21.00;;;13.32;;
51578;SDS011;47998;53.242;6.386;2022-08-21T03:19:58;19.40;;;12.90;;
51578;SDS011;47998;53.242;6.386;2022-08-21T03:22:24;19.17;;;12.23;;
51578;SDS011;47998;53.242;6.386;2022-08-21T03:24:50;20.55;;;12.77;;
51578;SDS011;47998;53.242;6.386;2022-08-21T03:27:16;24.25;;;13.50;;
51578;SDS011;47998;53.242;6.386;2022-08-21T03:29:42;20.98;;;13.07;;
51578;SDS011;47998;53.242;6.386;2022-08-21T03:32:08;24.35;;;13.10;;
51578;SDS011;47998;53.242;6.386;2022-08-21T03:34:35;24.00;;;13.80;;
51578;SDS011;47998;53.242;6.386;2022-08-21T03:37:02;18.38;;;12.52;;
51578;SDS011;47998;53.242;6.386;2022-08-21T03:39:28;20.73;;;12.95;;
51578;SDS011;47998;53.242;6.386;2022-08-21T03:41:54;24.17;;;12.98;;
51578;SDS011;47998;53.242;6.386;2022-08-21T03:44:20;21.48;;;13.98;;
51578;SDS011;47998;53.242;6.386;2022-08-21T03:46:46;20.08;;;13.48;;
51578;SDS011;47998;53.242;6.386;2022-08-21T03:49:14;20.17;;;12.48;;
51578;SDS011;47998;53.242;6.386;2022-08-21T03:51:40;24.55;;;14.32;;
51578;SDS011;47998;53.242;6.386;2022-08-21T03:54:06;24.10;;;14.80;;
51578;SDS011;47998;53.242;6.386;2022-08-21T03:56:34;21.63;;;13.57;;
51578;SDS011;47998;53.242;6.386;2022-08-21T03:59:00;19.27;;;13.55;;
51578;SDS011;47998;53.242;6.386;2022-08-21T04:01:27;22.92;;;13.63;;
51578;SDS011;47998;53.242;6.386;2022-08-21T04:03:53;25.75;;;14.35;;
51578;SDS011;47998;53.242;6.386;2022-08-21T04:06:19;26.05;;;14.18;;
51578;SDS011;47998;53.242;6.386;2022-08-21T04:08:44;17.40;;;12.98;;
51578;SDS011;47998;53.242;6.386;2022-08-21T04:11:10;21.75;;;14.27;;
51578;SDS011;47998;53.242;6.386;2022-08-21T04:13:36;21.98;;;13.23;;
51578;SDS011;47998;53.242;6.386;2022-08-21T04:16:03;18.05;;;13.45;;
51578;SDS011;47998;53.242;6.386;2022-08-21T04:18:34;23.17;;;13.50;;
51578;SDS011;47998;53.242;6.386;2022-08-21T04:21:00;20.65;;;12.85;;
51578;SDS011;47998;53.242;6.386;2022-08-21T04:23:30;24.10;;;13.95;;
51578;SDS011;47998;53.242;6.386;2022-08-21T04:25:56;24.60;;;12.48;;
51578;SDS011;47998;53.242;6.386;2022-08-21T04:28:23;20.05;;;13.80;;
51578;SDS011;47998;53.242;6.386;2022-08-21T04:30:51;18.85;;;11.90;;
51578;SDS011;47998;53.242;6.386;2022-08-21T04:33:17;21.55;;;13.18;;
51578;SDS011;47998;53.242;6.386;2022-08-21T04:35:43;26.55;;;13.52;;
51578;SDS011;47998;53.242;6.386;2022-08-21T04:38:09;23.58;;;13.65;;
51578;SDS011;47998;53.242;6.386;2022-08-21T04:40:35;24.75;;;13.50;;
51578;SDS011;47998;53.242;6.386;2022-08-21T04:43:03;24.65;;;14.70;;
51578;SDS011;47998;53.242;6.386;2022-08-21T04:45:32;19.58;;;12.85;;
51578;SDS011;47998;53.242;6.386;2022-08-21T04:48:01;22.42;;;12.15;;
51578;SDS011;47998;53.242;6.386;2022-08-21T04:50:39;16.83;;;12.63;;
51578;SDS011;47998;53.242;6.386;2022-08-21T04:53:14;21.02;;;10.60;;
51578;SDS011;47998;53.242;6.386;2022-08-21T04:55:43;21.02;;;11.40;;
51578;SDS011;47998;53.242;6.386;2022-08-21T04:58:11;16.75;;;11.18;;
51578;SDS011;47998;53.242;6.386;2022-08-21T05:00:39;23.27;;;11.95;;
51578;SDS011;47998;53.242;6.386;2022-08-21T05:03:06;17.42;;;10.80;;
51578;SDS011;47998;53.242;6.386;2022-08-21T05:05:34;20.40;;;11.15;;
51578;SDS011;47998;53.242;6.386;2022-08-21T05:08:01;21.17;;;10.82;;
51578;SDS011;47998;53.242;6.386;2022-08-21T05:10:28;21.10;;;11.27;;
51578;SDS011;47998;53.242;6.386;2022-08-21T05:12:55;21.85;;;11.90;;
51578;SDS011;47998;53.242;6.386;2022-08-21T05:15:24;20.05;;;11.55;;
51578;SDS011;47998;53.242;6.386;2022-08-21T05:17:50;21.75;;;11.63;;
51578;SDS011;47998;53.242;6.386;2022-08-21T05:20:15;17.50;;;12.18;;
51578;SDS011;47998;53.242;6.386;2022-08-21T05:22:41;19.10;;;10.95;;
51578;SDS011;47998;53.242;6.386;2022-08-21T05:25:07;17.20;;;10.52;;
51578;SDS011;47998;53.242;6.386;2022-08-21T05:27:37;21.17;;;10.68;;
51578;SDS011;47998;53.242;6.386;2022-08-21T05:30:07;22.02;;;10.52;;
51578;SDS011;47998;53.242;6.386;2022-08-21T05:32:37;16.88;;;10.45;;
51578;SDS011;47998;53.242;6.386;2022-08-21T05:35:04;13.65;;;9.45;;
51578;SDS011;47998;53.242;6.386;2022-08-21T05:37:33;19.88;;;9.50;;
51578;SDS011;47998;53.242;6.386;2022-08-21T05:39:59;19.52;;;10.05;;
51578;SDS011;47998;53.242;6.386;2022-08-21T05:42:26;16.02;;;9.98;;
51578;SDS011;47998;53.242;6.386;2022-08-21T05:44:53;19.85;;;10.63;;
51578;SDS011;47998;53.242;6.386;2022-08-21T05:47:18;12.98;;;8.63;;
51578;SDS011;47998;53.242;6.386;2022-08-21T05:49:44;13.45;;;8.63;;
51578;SDS011;47998;53.242;6.386;2022-08-21T05:52:17;18.17;;;9.02;;
51578;SDS011;47998;53.242;6.386;2022-08-21T05:54:46;12.98;;;8.75;;
51578;SDS011;47998;53.242;6.386;2022-08-21T05:57:12;15.93;;;9.32;;
51578;SDS011;47998;53.242;6.386;2022-08-21T05:59:37;10.38;;;8.15;;
51578;SDS011;47998;53.242;6.386;2022-08-21T06:02:03;14.02;;;8.10;;
51578;SDS011;47998;53.242;6.386;2022-08-21T06:04:29;15.55;;;8.02;;
51578;SDS011;47998;53.242;6.386;2022-08-21T06:06:55;18.35;;;7.72;;
51578;SDS011;47998;53.242;6.386;2022-08-21T06:09:23;15.90;;;8.27;;
51578;SDS011;47998;53.242;6.386;2022-08-21T06:11:51;16.25;;;8.90;;
51578;SDS011;47998;53.242;6.386;2022-08-21T06:14:17;17.58;;;8.10;;
51578;SDS011;47998;53.242;6.386;2022-08-21T06:16:42;15.05;;;8.05;;
51578;SDS011;47998;53.242;6.386;2022-08-21T06:19:08;13.50;;;7.65;;
51578;SDS011;47998;53.242;6.386;2022-08-21T06:21:34;13.48;;;7.03;;
51578;SDS011;47998;53.242;6.386;2022-08-21T06:24:02;13.80;;;6.43;;
51578;SDS011;47998;53.242;6.386;2022-08-21T06:26:30;15.02;;;7.55;;
51578;SDS011;47998;53.242;6.386;2022-08-21T06:28:57;11.43;;;7.32;;
51578;SDS011;47998;53.242;6.386;2022-08-21T06:31:23;20.42;;;7.63;;
51578;SDS011;47998;53.242;6.386;2022-08-21T06:33:51;17.73;;;7.15;;
51578;SDS011;47998;53.242;6.386;2022-08-21T06:36:18;13.18;;;6.85;;
51578;SDS011;47998;53.242;6.386;2022-08-21T06:38:46;11.57;;;7.28;;
51578;SDS011;47998;53.242;6.386;2022-08-21T06:41:12;15.38;;;7.07;;
51578;SDS011;47998;53.242;6.386;2022-08-21T06:43:39;18.35;;;7.75;;
51578;SDS011;47998;53.242;6.386;2022-08-21T06:46:04;12.85;;;6.95;;
51578;SDS011;47998;53.242;6.386;2022-08-21T06:48:30;14.48;;;6.53;;
51578;SDS011;47998;53.242;6.386;2022-08-21T06:50:59;15.25;;;5.18;;
51578;SDS011;47998;53.242;6.386;2022-08-21T06:53:25;11.23;;;6.00;;
51578;SDS011;47998;53.242;6.386;2022-08-21T06:55:51;15.38;;;6.00;;
51578;SDS011;47998;53.242;6.386;2022-08-21T06:58:17;16.42;;;6.00;;
51578;SDS011;47998;53.242;6.386;2022-08-21T07:00:46;13.63;;;5.70;;
51578;SDS011;47998;53.242;6.386;2022-08-21T07:03:18;11.88;;;4.13;;
51578;SDS011;47998;53.242;6.386;2022-08-21T07:05:52;11.40;;;4.57;;
51578;SDS011;47998;53.242;6.386;2022-08-21T07:08:21;13.13;;;3.65;;
51578;SDS011;47998;53.242;6.386;2022-08-21T07:10:49;7.05;;;2.83;;
51578;SDS011;47998;53.242;6.386;2022-08-21T07:13:20;12.65;;;3.90;;
51578;SDS011;47998;53.242;6.386;2022-08-21T07:15:48;9.50;;;3.17;;
51578;SDS011;47998;53.242;6.386;2022-08-21T07:18:19;12.23;;;3.08;;
51578;SDS011;47998;53.242;6.386;2022-08-21T07:20:47;9.52;;;3.33;;
51578;SDS011;47998;53.242;6.386;2022-08-21T07:23:33;8.23;;;2.90;;
51578;SDS011;47998;53.242;6.386;2022-08-21T07:26:05;11.60;;;3.28;;
51578;SDS011;47998;53.242;6.386;2022-08-21T07:28:31;9.65;;;3.92;;
51578;SDS011;47998;53.242;6.386;2022-08-21T07:30:57;10.95;;;2.92;;
51578;SDS011;47998;53.242;6.386;2022-08-21T07:33:28;9.98;;;2.90;;
51578;SDS011;47998;53.242;6.386;2022-08-21T07:35:58;8.80;;;2.33;;
51578;SDS011;47998;53.242;6.386;2022-08-21T07:38:31;7.25;;;2.47;;
51578;SDS011;47998;53.242;6.386;2022-08-21T07:40:57;9.45;;;2.55;;
51578;SDS011;47998;53.242;6.386;2022-08-21T07:43:26;10.32;;;3.13;;
51578;SDS011;47998;53.242;6.386;2022-08-21T07:45:53;8.13;;;2.70;;
51578;SDS011;47998;53.242;6.386;2022-08-21T07:48:22;13.35;;;2.92;;
51578;SDS011;47998;53.242;6.386;2022-08-21T07:50:50;11.38;;;2.70;;
51578;SDS011;47998;53.242;6.386;2022-08-21T07:53:18;7.95;;;2.65;;
51578;SDS011;47998;53.242;6.386;2022-08-21T07:55:48;8.88;;;2.33;;
51578;SDS011;47998;53.242;6.386;2022-08-21T07:58:14;15.65;;;4.15;;
51578;SDS011;47998;53.242;6.386;2022-08-21T08:00:42;10.82;;;2.97;;
51578;SDS011;47998;53.242;6.386;2022-08-21T08:03:08;11.18;;;2.50;;
51578;SDS011;47998;53.242;6.386;2022-08-21T08:05:36;8.95;;;2.63;;
51578;SDS011;47998;53.242;6.386;2022-08-21T08:08:06;11.00;;;2.50;;
51578;SDS011;47998;53.242;6.386;2022-08-21T08:10:32;14.40;;;2.67;;
51578;SDS011;47998;53.242;6.386;2022-08-21T08:12:58;9.75;;;2.63;;
51578;SDS011;47998;53.242;6.386;2022-08-21T08:15:25;8.40;;;2.33;;
51578;SDS011;47998;53.242;6.386;2022-08-21T08:17:51;8.23;;;2.47;;
51578;SDS011;47998;53.242;6.386;2022-08-21T08:20:20;9.93;;;2.38;;
51578;SDS011;47998;53.242;6.386;2022-08-21T08:22:54;11.30;;;2.80;;
51578;SDS011;47998;53.242;6.386;2022-08-21T08:25:21;9.88;;;2.58;;
51578;SDS011;47998;53.242;6.386;2022-08-21T08:27:48;10.90;;;2.60;;
51578;SDS011;47998;53.242;6.386;2022-08-21T08:30:21;11.70;;;3.28;;
51578;SDS011;47998;53.242;6.386;2022-08-21T08:32:48;11.20;;;3.05;;
51578;SDS011;47998;53.242;6.386;2022-08-21T08:35:15;10.65;;;2.45;;
51578;SDS011;47998;53.242;6.386;2022-08-21T08:37:43;21.00;;;4.07;;
51578;SDS011;47998;53.242;6.386;2022-08-21T08:40:27;12.57;;;2.90;;
51578;SDS011;47998;53.242;6.386;2022-08-21T08:43:03;14.23;;;3.22;;
51578;SDS011;47998;53.242;6.386;2022-08-21T08:45:35;9.95;;;3.17;;
51578;SDS011;47998;53.242;6.386;2022-08-21T08:48:05;13.20;;;2.85;;
51578;SDS011;47998;53.242;6.386;2022-08-21T08:50:44;9.43;;;2.83;;
51578;SDS011;47998;53.242;6.386;2022-08-21T08:53:19;11.32;;;3.17;;
51578;SDS011;47998;53.242;6.386;2022-08-21T08:55:53;11.13;;;3.55;;
51578;SDS011;47998;53.242;6.386;2022-08-21T08:58:29;11.13;;;2.90;;
51578;SDS011;47998;53.242;6.386;2022-08-21T09:01:03;16.97;;;4.40;;
51578;SDS011;47998;53.242;6.386;2022-08-21T09:03:37;9.75;;;2.42;;
51578;SDS011;47998;53.242;6.386;2022-08-21T09:08:46;12.43;;;3.67;;
51578;SDS011;47998;53.242;6.386;2022-08-21T09:12:29;14.10;;;3.83;;
51578;SDS011;47998;53.242;6.386;2022-08-21T09:28:32;9.77;;;3.05;;
51578;SDS011;47998;53.242;6.386;2022-08-21T09:31:00;10.73;;;3.08;;
51578;SDS011;47998;53.242;6.386;2022-08-21T09:33:33;10.05;;;2.58;;
51578;SDS011;47998;53.242;6.386;2022-08-21T09:35:59;13.98;;;2.92;;
51578;SDS011;47998;53.242;6.386;2022-08-21T09:38:31;12.77;;;2.50;;
51578;SDS011;47998;53.242;6.386;2022-08-21T09:41:08;8.23;;;1.97;;
51578;SDS011;47998;53.242;6.386;2022-08-21T09:43:38;11.50;;;2.88;;
51578;SDS011;47998;53.242;6.386;2022-08-21T09:46:19;8.98;;;2.75;;
51578;SDS011;47998;53.242;6.386;2022-08-21T09:48:47;10.27;;;2.13;;
51578;SDS011;47998;53.242;6.386;2022-08-21T09:51:20;7.32;;;2.13;;
51578;SDS011;47998;53.242;6.386;2022-08-21T09:53:51;12.18;;;2.75;;
51578;SDS011;47998;53.242;6.386;2022-08-21T09:56:39;9.55;;;2.30;;
51578;SDS011;47998;53.242;6.386;2022-08-21T09:59:44;8.18;;;1.90;;
51578;SDS011;47998;53.242;6.386;2022-08-21T10:02:33;11.73;;;2.67;;
51578;SDS011;47998;53.242;6.386;2022-08-21T10:05:37;12.82;;;2.75;;
51578;SDS011;47998;53.242;6.386;2022-08-21T10:07:55;7.00;;;1.92;;
51578;SDS011;47998;53.242;6.386;2022-08-21T10:10:26;12.90;;;2.97;;
51578;SDS011;47998;53.242;6.386;2022-08-21T10:13:03;8.05;;;2.10;;
51578;SDS011;47998;53.242;6.386;2022-08-21T10:18:40;8.55;;;1.83;;
51578;SDS011;47998;53.242;6.386;2022-08-21T10:21:37;8.15;;;2.22;;
51578;SDS011;47998;53.242;6.386;2022-08-21T10:27:01;12.45;;;2.80;;
51578;SDS011;47998;53.242;6.386;2022-08-21T10:29:59;9.93;;;2.75;;
51578;SDS011;47998;53.242;6.386;2022-08-21T10:35:40;10.27;;;2.35;;
51578;SDS011;47998;53.242;6.386;2022-08-21T10:41:29;7.82;;;1.88;;
51578;SDS011;47998;53.242;6.386;2022-08-21T10:44:30;7.93;;;1.63;;
51578;SDS011;47998;53.242;6.386;2022-08-21T10:47:17;10.95;;;2.33;;
51578;SDS011;47998;53.242;6.386;2022-08-21T10:55:42;6.55;;;1.67;;
51578;SDS011;47998;53.242;6.386;2022-08-21T10:58:17;10.00;;;2.38;;
51578;SDS011;47998;53.242;6.386;2022-08-21T11:00:51;9.52;;;2.55;;
51578;SDS011;47998;53.242;6.386;2022-08-21T11:03:29;6.00;;;2.00;;
51578;SDS011;47998;53.242;6.386;2022-08-21T11:06:05;10.10;;;2.63;;
51578;SDS011;47998;53.242;6.386;2022-08-21T11:08:50;6.22;;;2.00;;
51578;SDS011;47998;53.242;6.386;2022-08-21T11:11:24;10.30;;;2.30;;
51578;SDS011;47998;53.242;6.386;2022-08-21T11:14:25;7.70;;;1.85;;
51578;SDS011;47998;53.242;6.386;2022-08-21T11:17:11;9.40;;;2.42;;
51578;SDS011;47998;53.242;6.386;2022-08-21T11:25:07;11.93;;;2.53;;
51578;SDS011;47998;53.242;6.386;2022-08-21T11:27:54;8.70;;;2.30;;
51578;SDS011;47998;53.242;6.386;2022-08-21T11:30:29;5.32;;;1.92;;
51578;SDS011;47998;53.242;6.386;2022-08-21T11:35:54;6.30;;;1.95;;
51578;SDS011;47998;53.242;6.386;2022-08-21T11:38:42;9.05;;;1.92;;
51578;SDS011;47998;53.242;6.386;2022-08-21T11:43:48;7.47;;;1.88;;
51578;SDS011;47998;53.242;6.386;2022-08-21T11:51:59;8.18;;;1.65;;
51578;SDS011;47998;53.242;6.386;2022-08-21T11:54:39;7.15;;;1.63;;
51578;SDS011;47998;53.242;6.386;2022-08-21T12:00:34;5.03;;;1.23;;
51578;SDS011;47998;53.242;6.386;2022-08-21T12:06:06;5.72;;;1.33;;
51578;SDS011;47998;53.242;6.386;2022-08-21T12:08:33;8.80;;;1.40;;
51578;SDS011;47998;53.242;6.386;2022-08-21T12:16:35;4.90;;;1.10;;
51578;SDS011;47998;53.242;6.386;2022-08-21T12:21:53;4.68;;;1.52;;
51578;SDS011;47998;53.242;6.386;2022-08-21T12:27:21;3.92;;;1.23;;
51578;SDS011;47998;53.242;6.386;2022-08-21T12:30:03;8.05;;;1.42;;
51578;SDS011;47998;53.242;6.386;2022-08-21T12:32:45;4.88;;;1.25;;
51578;SDS011;47998;53.242;6.386;2022-08-21T12:35:23;6.60;;;1.48;;
51578;SDS011;47998;53.242;6.386;2022-08-21T12:40:30;6.72;;;1.48;;
51578;SDS011;47998;53.242;6.386;2022-08-21T12:43:02;6.47;;;1.33;;
51578;SDS011;47998;53.242;6.386;2022-08-21T12:45:31;5.68;;;1.30;;
51578;SDS011;47998;53.242;6.386;2022-08-21T12:48:00;6.65;;;1.60;;
51578;SDS011;47998;53.242;6.386;2022-08-21T12:50:49;4.57;;;1.42;;
51578;SDS011;47998;53.242;6.386;2022-08-21T12:55:53;5.95;;;1.55;;
51578;SDS011;47998;53.242;6.386;2022-08-21T12:58:25;5.97;;;1.50;;
51578;SDS011;47998;53.242;6.386;2022-08-21T13:01:37;6.25;;;1.35;;
51578;SDS011;47998;53.242;6.386;2022-08-21T13:03:41;5.10;;;1.40;;
51578;SDS011;47998;53.242;6.386;2022-08-21T13:06:07;5.78;;;1.30;;
51578;SDS011;47998;53.242;6.386;2022-08-21T13:08:43;5.25;;;1.40;;
51578;SDS011;47998;53.242;6.386;2022-08-21T13:11:14;10.63;;;1.83;;
51578;SDS011;47998;53.242;6.386;2022-08-21T13:13:48;5.30;;;2.00;;
51578;SDS011;47998;53.242;6.386;2022-08-21T13:16:18;5.60;;;1.33;;
51578;SDS011;47998;53.242;6.386;2022-08-21T13:18:58;6.25;;;1.40;;
51578;SDS011;47998;53.242;6.386;2022-08-21T13:21:33;7.68;;;1.75;;
51578;SDS011;47998;53.242;6.386;2022-08-21T13:26:44;7.47;;;1.42;;
51578;SDS011;47998;53.242;6.386;2022-08-21T13:29:11;6.88;;;1.38;;
51578;SDS011;47998;53.242;6.386;2022-08-21T13:31:41;6.55;;;1.38;;
51578;SDS011;47998;53.242;6.386;2022-08-21T13:34:12;5.22;;;1.70;;
51578;SDS011;47998;53.242;6.386;2022-08-21T13:36:39;6.50;;;1.85;;
51578;SDS011;47998;53.242;6.386;2022-08-21T13:39:08;4.32;;;1.70;;
51578;SDS011;47998;53.242;6.386;2022-08-21T13:41:37;7.68;;;1.40;;
51578;SDS011;47998;53.242;6.386;2022-08-21T13:44:17;6.50;;;1.80;;
51578;SDS011;47998;53.242;6.386;2022-08-21T13:46:45;4.75;;;1.40;;
51578;SDS011;47998;53.242;6.386;2022-08-21T13:49:13;8.55;;;1.40;;
51578;SDS011;47998;53.242;6.386;2022-08-21T13:51:43;6.05;;;1.40;;
51578;SDS011;47998;53.242;6.386;2022-08-21T13:54:36;6.93;;;1.27;;
51578;SDS011;47998;53.242;6.386;2022-08-21T13:57:00;5.93;;;1.35;;
51578;SDS011;47998;53.242;6.386;2022-08-21T13:59:32;4.93;;;1.40;;
51578;SDS011;47998;53.242;6.386;2022-08-21T14:05:00;8.88;;;1.67;;
51578;SDS011;47998;53.242;6.386;2022-08-21T14:07:28;3.13;;;1.02;;
51578;SDS011;47998;53.242;6.386;2022-08-21T14:10:08;5.50;;;1.27;;
51578;SDS011;47998;53.242;6.386;2022-08-21T14:13:26;5.53;;;1.02;;
51578;SDS011;47998;53.242;6.386;2022-08-21T14:15:32;6.03;;;1.48;;
51578;SDS011;47998;53.242;6.386;2022-08-21T14:21:08;4.38;;;1.30;;
51578;SDS011;47998;53.242;6.386;2022-08-21T14:23:34;9.10;;;1.60;;
51578;SDS011;47998;53.242;6.386;2022-08-21T14:26:05;6.90;;;1.50;;
51578;SDS011;47998;53.242;6.386;2022-08-21T14:28:34;6.13;;;1.73;;
51578;SDS011;47998;53.242;6.386;2022-08-21T14:31:19;5.13;;;1.50;;
51578;SDS011;47998;53.242;6.386;2022-08-21T14:33:58;5.97;;;1.58;;
51578;SDS011;47998;53.242;6.386;2022-08-21T14:36:31;7.47;;;1.45;;
51578;SDS011;47998;53.242;6.386;2022-08-21T14:38:57;9.25;;;2.08;;
51578;SDS011;47998;53.242;6.386;2022-08-21T14:41:24;4.82;;;1.40;;
51578;SDS011;47998;53.242;6.386;2022-08-21T14:43:54;6.60;;;1.45;;
51578;SDS011;47998;53.242;6.386;2022-08-21T14:46:24;7.47;;;1.65;;
51578;SDS011;47998;53.242;6.386;2022-08-21T14:48:51;4.43;;;1.23;;
51578;SDS011;47998;53.242;6.386;2022-08-21T14:51:17;6.28;;;1.25;;
51578;SDS011;47998;53.242;6.386;2022-08-21T14:53:46;5.75;;;1.38;;
51578;SDS011;47998;53.242;6.386;2022-08-21T14:56:13;7.47;;;1.38;;
51578;SDS011;47998;53.242;6.386;2022-08-21T14:58:43;6.05;;;1.60;;
51578;SDS011;47998;53.242;6.386;2022-08-21T15:01:18;5.28;;;1.13;;
51578;SDS011;47998;53.242;6.386;2022-08-21T15:03:50;6.20;;;1.20;;
51578;SDS011;47998;53.242;6.386;2022-08-21T15:06:16;6.53;;;1.83;;
51578;SDS011;47998;53.242;6.386;2022-08-21T15:08:46;9.50;;;1.52;;
51578;SDS011;47998;53.242;6.386;2022-08-21T15:11:21;6.97;;;1.63;;
51578;SDS011;47998;53.242;6.386;2022-08-21T15:13:53;6.25;;;1.58;;
51578;SDS011;47998;53.242;6.386;2022-08-21T15:16:23;5.80;;;1.67;;
51578;SDS011;47998;53.242;6.386;2022-08-21T15:18:49;4.80;;;1.30;;
51578;SDS011;47998;53.242;6.386;2022-08-21T15:21:17;6.40;;;1.38;;
51578;SDS011;47998;53.242;6.386;2022-08-21T15:23:43;8.13;;;1.23;;
51578;SDS011;47998;53.242;6.386;2022-08-21T15:26:08;7.38;;;1.70;;
51578;SDS011;47998;53.242;6.386;2022-08-21T15:28:35;7.50;;;2.10;;
51578;SDS011;47998;53.242;6.386;2022-08-21T15:31:01;6.13;;;2.00;;
51578;SDS011;47998;53.242;6.386;2022-08-21T15:33:27;7.55;;;1.58;;
51578;SDS011;47998;53.242;6.386;2022-08-21T15:35:53;8.93;;;1.92;;
51578;SDS011;47998;53.242;6.386;2022-08-21T15:38:19;8.60;;;1.77;;
51578;SDS011;47998;53.242;6.386;2022-08-21T15:40:51;12.57;;;1.77;;
51578;SDS011;47998;53.242;6.386;2022-08-21T15:43:30;9.10;;;2.10;;
51578;SDS011;47998;53.242;6.386;2022-08-21T15:46:03;8.93;;;2.38;;
51578;SDS011;47998;53.242;6.386;2022-08-21T15:48:30;5.57;;;1.55;;
51578;SDS011;47998;53.242;6.386;2022-08-21T15:50:59;7.00;;;1.63;;
51578;SDS011;47998;53.242;6.386;2022-08-21T15:53:24;7.55;;;1.98;;
51578;SDS011;47998;53.242;6.386;2022-08-21T15:55:50;9.45;;;1.95;;
51578;SDS011;47998;53.242;6.386;2022-08-21T15:58:16;7.63;;;1.63;;
51578;SDS011;47998;53.242;6.386;2022-08-21T16:00:45;9.65;;;2.15;;
51578;SDS011;47998;53.242;6.386;2022-08-21T16:03:13;8.45;;;1.98;;
51578;SDS011;47998;53.242;6.386;2022-08-21T16:05:44;8.00;;;1.70;;
51578;SDS011;47998;53.242;6.386;2022-08-21T16:08:13;9.07;;;2.17;;
51578;SDS011;47998;53.242;6.386;2022-08-21T16:10:38;7.15;;;1.55;;
51578;SDS011;47998;53.242;6.386;2022-08-21T16:13:11;5.88;;;1.42;;
51578;SDS011;47998;53.242;6.386;2022-08-21T16:15:53;5.22;;;1.35;;
51578;SDS011;47998;53.242;6.386;2022-08-21T16:18:19;11.60;;;1.60;;
51578;SDS011;47998;53.242;6.386;2022-08-21T16:20:48;6.90;;;1.90;;